sensor_id;sensor_type;location;lat;lon;timestamp;P1;durP1;ratioP1;P2;durP2;ratioP2
24273;SDS011;12392;42.678;23.380;2022-07-23T00:00:05;18.30;;;4.80;;
24273;SDS011;12392;42.678;23.380;2022-07-23T00:02:31;7.53;;;4.68;;
24273;SDS011;12392;42.678;23.380;2022-07-23T00:04:57;10.20;;;6.00;;
24273;SDS011;12392;42.678;23.380;2022-07-23T00:07:22;12.70;;;5.30;;
24273;SDS011;12392;42.678;23.380;2022-07-23T00:09:48;9.25;;;5.30;;
24273;SDS011;12392;42.678;23.380;2022-07-23T00:12:14;7.70;;;5.38;;
24273;SDS011;12392;42.678;23.380;2022-07-23T00:14:39;6.15;;;4.72;;
24273;SDS011;12392;42.678;23.380;2022-07-23T00:17:05;8.73;;;5.07;;
24273;SDS011;12392;42.678;23.380;2022-07-23T00:19:31;6.68;;;4.57;;
24273;SDS011;12392;42.678;23.380;2022-07-23T00:21:56;8.18;;;5.18;;
24273;SDS011;12392;42.678;23.380;2022-07-23T00:24:22;14.25;;;5.13;;
24273;SDS011;12392;42.678;23.380;2022-07-23T00:26:48;10.23;;;5.10;;
24273;SDS011;12392;42.678;23.380;2022-07-23T00:29:14;14.80;;;7.05;;
24273;SDS011;12392;42.678;23.380;2022-07-23T00:31:39;13.50;;;6.60;;
24273;SDS011;12392;42.678;23.380;2022-07-23T00:34:06;19.98;;;7.55;;
24273;SDS011;12392;42.678;23.380;2022-07-23T00:36:31;12.18;;;6.22;;
24273;SDS011;12392;42.678;23.380;2022-07-23T00:38:57;10.30;;;5.78;;
24273;SDS011;12392;42.678;23.380;2022-07-23T00:41:23;13.80;;;6.28;;
24273;SDS011;12392;42.678;23.380;2022-07-23T00:43:49;13.45;;;5.78;;
24273;SDS011;12392;42.678;23.380;2022-07-23T00:46:18;6.93;;;4.63;;
24273;SDS011;12392;42.678;23.380;2022-07-23T00:48:45;9.55;;;5.57;;
24273;SDS011;12392;42.678;23.380;2022-07-23T00:51:10;9.63;;;5.22;;
24273;SDS011;12392;42.678;23.380;2022-07-23T00:53:36;13.68;;;5.13;;
24273;SDS011;12392;42.678;23.380;2022-07-23T00:56:02;12.52;;;5.20;;
24273;SDS011;12392;42.678;23.380;2022-07-23T00:58:28;9.48;;;5.63;;
24273;SDS011;12392;42.678;23.380;2022-07-23T01:00:53;10.07;;;5.38;;
24273;SDS011;12392;42.678;23.380;2022-07-23T01:03:19;14.35;;;4.95;;
24273;SDS011;12392;42.678;23.380;2022-07-23T01:05:45;9.80;;;5.15;;
24273;SDS011;12392;42.678;23.380;2022-07-23T01:08:11;11.68;;;4.88;;
24273;SDS011;12392;42.678;23.380;2022-07-23T01:10:37;7.18;;;5.50;;
24273;SDS011;12392;42.678;23.380;2022-07-23T01:13:04;14.35;;;5.20;;
24273;SDS011;12392;42.678;23.380;2022-07-23T01:15:34;11.95;;;6.05;;
24273;SDS011;12392;42.678;23.380;2022-07-23T01:18:00;7.00;;;5.18;;
24273;SDS011;12392;42.678;23.380;2022-07-23T01:20:27;7.75;;;5.38;;
24273;SDS011;12392;42.678;23.380;2022-07-23T01:22:54;11.00;;;5.57;;
24273;SDS011;12392;42.678;23.380;2022-07-23T01:25:20;12.93;;;5.75;;
24273;SDS011;12392;42.678;23.380;2022-07-23T01:27:46;9.13;;;6.03;;
24273;SDS011;12392;42.678;23.380;2022-07-23T01:30:12;12.55;;;6.22;;
24273;SDS011;12392;42.678;23.380;2022-07-23T01:32:38;10.23;;;5.72;;
24273;SDS011;12392;42.678;23.380;2022-07-23T01:35:05;9.68;;;5.45;;
24273;SDS011;12392;42.678;23.380;2022-07-23T01:37:31;13.48;;;6.38;;
24273;SDS011;12392;42.678;23.380;2022-07-23T01:39:57;11.02;;;5.90;;
24273;SDS011;12392;42.678;23.380;2022-07-23T01:42:23;8.40;;;5.90;;
24273;SDS011;12392;42.678;23.380;2022-07-23T01:44:49;13.30;;;6.70;;
24273;SDS011;12392;42.678;23.380;2022-07-23T01:47:15;11.18;;;5.60;;
24273;SDS011;12392;42.678;23.380;2022-07-23T01:49:41;10.60;;;5.72;;
24273;SDS011;12392;42.678;23.380;2022-07-23T01:52:07;8.38;;;5.93;;
24273;SDS011;12392;42.678;23.380;2022-07-23T01:54:35;10.68;;;6.35;;
24273;SDS011;12392;42.678;23.380;2022-07-23T01:57:01;11.48;;;5.65;;
24273;SDS011;12392;42.678;23.380;2022-07-23T01:59:27;11.18;;;6.88;;
24273;SDS011;12392;42.678;23.380;2022-07-23T02:01:53;13.30;;;5.75;;
24273;SDS011;12392;42.678;23.380;2022-07-23T02:04:20;12.00;;;6.70;;
24273;SDS011;12392;42.678;23.380;2022-07-23T02:06:46;10.00;;;6.18;;
24273;SDS011;12392;42.678;23.380;2022-07-23T02:09:12;8.93;;;6.18;;
24273;SDS011;12392;42.678;23.380;2022-07-23T02:11:38;12.80;;;7.07;;
24273;SDS011;12392;42.678;23.380;2022-07-23T02:14:04;12.40;;;7.55;;
24273;SDS011;12392;42.678;23.380;2022-07-23T02:16:30;14.27;;;8.02;;
24273;SDS011;12392;42.678;23.380;2022-07-23T02:18:55;21.92;;;8.77;;
24273;SDS011;12392;42.678;23.380;2022-07-23T02:21:21;16.60;;;8.50;;
24273;SDS011;12392;42.678;23.380;2022-07-23T02:23:47;16.85;;;6.93;;
24273;SDS011;12392;42.678;23.380;2022-07-23T02:26:12;15.00;;;7.30;;
24273;SDS011;12392;42.678;23.380;2022-07-23T02:28:38;14.35;;;8.00;;
24273;SDS011;12392;42.678;23.380;2022-07-23T02:31:04;21.45;;;7.18;;
24273;SDS011;12392;42.678;23.380;2022-07-23T02:33:31;21.52;;;7.55;;
24273;SDS011;12392;42.678;23.380;2022-07-23T02:35:57;20.23;;;7.78;;
24273;SDS011;12392;42.678;23.380;2022-07-23T02:38:23;14.10;;;7.50;;
24273;SDS011;12392;42.678;23.380;2022-07-23T02:40:49;18.48;;;7.70;;
24273;SDS011;12392;42.678;23.380;2022-07-23T02:43:15;10.90;;;7.10;;
24273;SDS011;12392;42.678;23.380;2022-07-23T02:45:40;24.58;;;7.68;;
24273;SDS011;12392;42.678;23.380;2022-07-23T02:48:06;17.92;;;7.18;;
24273;SDS011;12392;42.678;23.380;2022-07-23T02:50:32;15.52;;;8.32;;
24273;SDS011;12392;42.678;23.380;2022-07-23T02:52:58;18.98;;;7.55;;
24273;SDS011;12392;42.678;23.380;2022-07-23T02:55:23;23.45;;;8.40;;
24273;SDS011;12392;42.678;23.380;2022-07-23T02:57:49;19.77;;;8.75;;
24273;SDS011;12392;42.678;23.380;2022-07-23T03:00:15;14.85;;;8.52;;
24273;SDS011;12392;42.678;23.380;2022-07-23T03:02:41;20.40;;;8.23;;
24273;SDS011;12392;42.678;23.380;2022-07-23T03:05:06;15.15;;;7.93;;
24273;SDS011;12392;42.678;23.380;2022-07-23T03:07:32;16.33;;;7.38;;
24273;SDS011;12392;42.678;23.380;2022-07-23T03:09:58;18.35;;;8.30;;
24273;SDS011;12392;42.678;23.380;2022-07-23T03:12:24;18.40;;;7.32;;
24273;SDS011;12392;42.678;23.380;2022-07-23T03:14:49;14.20;;;7.43;;
24273;SDS011;12392;42.678;23.380;2022-07-23T03:17:15;13.32;;;7.82;;
24273;SDS011;12392;42.678;23.380;2022-07-23T03:19:41;15.88;;;7.43;;
24273;SDS011;12392;42.678;23.380;2022-07-23T03:22:07;10.60;;;7.50;;
24273;SDS011;12392;42.678;23.380;2022-07-23T03:24:32;17.77;;;8.45;;
24273;SDS011;12392;42.678;23.380;2022-07-23T03:27:30;22.05;;;8.18;;
24273;SDS011;12392;42.678;23.380;2022-07-23T03:29:56;9.85;;;6.95;;
24273;SDS011;12392;42.678;23.380;2022-07-23T03:32:23;17.02;;;7.63;;
24273;SDS011;12392;42.678;23.380;2022-07-23T03:34:49;10.65;;;7.80;;
24273;SDS011;12392;42.678;23.380;2022-07-23T03:37:15;17.90;;;8.98;;
24273;SDS011;12392;42.678;23.380;2022-07-23T03:39:41;14.43;;;8.05;;
24273;SDS011;12392;42.678;23.380;2022-07-23T03:42:07;14.23;;;8.13;;
24273;SDS011;12392;42.678;23.380;2022-07-23T03:44:33;21.25;;;8.75;;
24273;SDS011;12392;42.678;23.380;2022-07-23T03:46:59;11.02;;;7.72;;
24273;SDS011;12392;42.678;23.380;2022-07-23T03:49:25;19.08;;;7.93;;
24273;SDS011;12392;42.678;23.380;2022-07-23T03:51:50;20.55;;;8.15;;
24273;SDS011;12392;42.678;23.380;2022-07-23T03:54:16;14.15;;;8.20;;
24273;SDS011;12392;42.678;23.380;2022-07-23T03:56:42;19.08;;;8.10;;
24273;SDS011;12392;42.678;23.380;2022-07-23T03:59:08;16.48;;;7.57;;
24273;SDS011;12392;42.678;23.380;2022-07-23T04:01:35;11.40;;;6.38;;
24273;SDS011;12392;42.678;23.380;2022-07-23T04:04:01;9.93;;;7.05;;
24273;SDS011;12392;42.678;23.380;2022-07-23T04:06:27;9.60;;;6.32;;
24273;SDS011;12392;42.678;23.380;2022-07-23T04:08:53;14.98;;;6.40;;
24273;SDS011;12392;42.678;23.380;2022-07-23T04:11:18;10.90;;;6.78;;
24273;SDS011;12392;42.678;23.380;2022-07-23T04:13:44;13.88;;;6.60;;
24273;SDS011;12392;42.678;23.380;2022-07-23T04:16:10;25.80;;;8.95;;
24273;SDS011;12392;42.678;23.380;2022-07-23T04:18:35;19.58;;;10.02;;
24273;SDS011;12392;42.678;23.380;2022-07-23T04:21:01;28.52;;;11.77;;
24273;SDS011;12392;42.678;23.380;2022-07-23T04:23:27;29.35;;;11.68;;
24273;SDS011;12392;42.678;23.380;2022-07-23T04:25:52;23.30;;;11.32;;
24273;SDS011;12392;42.678;23.380;2022-07-23T04:28:18;18.83;;;9.52;;
24273;SDS011;12392;42.678;23.380;2022-07-23T04:30:44;20.80;;;11.10;;
24273;SDS011;12392;42.678;23.380;2022-07-23T04:33:09;18.55;;;9.00;;
24273;SDS011;12392;42.678;23.380;2022-07-23T04:35:36;14.27;;;8.77;;
24273;SDS011;12392;42.678;23.380;2022-07-23T04:38:02;10.27;;;7.43;;
24273;SDS011;12392;42.678;23.380;2022-07-23T04:40:28;15.15;;;8.27;;
24273;SDS011;12392;42.678;23.380;2022-07-23T04:42:54;18.50;;;8.10;;
24273;SDS011;12392;42.678;23.380;2022-07-23T04:45:20;12.85;;;7.93;;
24273;SDS011;12392;42.678;23.380;2022-07-23T04:47:46;12.02;;;7.53;;
24273;SDS011;12392;42.678;23.380;2022-07-23T04:50:12;10.95;;;7.55;;
24273;SDS011;12392;42.678;23.380;2022-07-23T04:52:38;18.33;;;8.30;;
24273;SDS011;12392;42.678;23.380;2022-07-23T04:55:04;16.70;;;8.50;;
24273;SDS011;12392;42.678;23.380;2022-07-23T04:57:30;17.77;;;7.90;;
24273;SDS011;12392;42.678;23.380;2022-07-23T04:59:55;14.73;;;8.23;;
24273;SDS011;12392;42.678;23.380;2022-07-23T05:02:21;16.73;;;8.73;;
24273;SDS011;12392;42.678;23.380;2022-07-23T05:04:47;13.27;;;8.05;;
24273;SDS011;12392;42.678;23.380;2022-07-23T05:07:12;14.73;;;7.38;;
24273;SDS011;12392;42.678;23.380;2022-07-23T05:09:38;21.88;;;7.65;;
24273;SDS011;12392;42.678;23.380;2022-07-23T05:12:04;11.25;;;7.88;;
24273;SDS011;12392;42.678;23.380;2022-07-23T05:14:30;16.08;;;8.05;;
24273;SDS011;12392;42.678;23.380;2022-07-23T05:16:56;14.27;;;7.88;;
24273;SDS011;12392;42.678;23.380;2022-07-23T05:19:21;14.60;;;7.93;;
24273;SDS011;12392;42.678;23.380;2022-07-23T05:21:47;15.45;;;7.78;;
24273;SDS011;12392;42.678;23.380;2022-07-23T05:24:13;17.98;;;7.88;;
24273;SDS011;12392;42.678;23.380;2022-07-23T05:26:38;14.40;;;7.65;;
24273;SDS011;12392;42.678;23.380;2022-07-23T05:29:04;18.77;;;8.25;;
24273;SDS011;12392;42.678;23.380;2022-07-23T05:31:30;12.98;;;7.88;;
24273;SDS011;12392;42.678;23.380;2022-07-23T05:33:56;12.63;;;7.05;;
24273;SDS011;12392;42.678;23.380;2022-07-23T05:36:21;12.02;;;7.45;;
24273;SDS011;12392;42.678;23.380;2022-07-23T05:38:47;15.45;;;7.03;;
24273;SDS011;12392;42.678;23.380;2022-07-23T05:41:13;13.95;;;7.60;;
24273;SDS011;12392;42.678;23.380;2022-07-23T05:43:38;16.17;;;7.20;;
24273;SDS011;12392;42.678;23.380;2022-07-23T05:46:04;19.70;;;8.48;;
24273;SDS011;12392;42.678;23.380;2022-07-23T05:48:30;18.17;;;7.45;;
24273;SDS011;12392;42.678;23.380;2022-07-23T05:50:56;14.23;;;7.75;;
24273;SDS011;12392;42.678;23.380;2022-07-23T05:53:22;13.57;;;7.70;;
24273;SDS011;12392;42.678;23.380;2022-07-23T05:55:48;17.25;;;7.38;;
24273;SDS011;12392;42.678;23.380;2022-07-23T05:58:13;13.48;;;7.40;;
24273;SDS011;12392;42.678;23.380;2022-07-23T06:00:39;9.95;;;6.70;;
24273;SDS011;12392;42.678;23.380;2022-07-23T06:03:05;16.73;;;7.80;;
24273;SDS011;12392;42.678;23.380;2022-07-23T06:05:30;20.35;;;7.75;;
24273;SDS011;12392;42.678;23.380;2022-07-23T06:07:56;12.48;;;7.55;;
24273;SDS011;12392;42.678;23.380;2022-07-23T06:10:22;10.95;;;6.82;;
24273;SDS011;12392;42.678;23.380;2022-07-23T06:12:47;14.00;;;7.82;;
24273;SDS011;12392;42.678;23.380;2022-07-23T06:15:13;21.17;;;7.57;;
24273;SDS011;12392;42.678;23.380;2022-07-23T06:17:39;17.10;;;7.40;;
24273;SDS011;12392;42.678;23.380;2022-07-23T06:20:06;19.33;;;7.93;;
24273;SDS011;12392;42.678;23.380;2022-07-23T06:22:33;14.35;;;7.18;;
24273;SDS011;12392;42.678;23.380;2022-07-23T06:24:59;10.52;;;7.80;;
24273;SDS011;12392;42.678;23.380;2022-07-23T06:27:24;17.38;;;8.02;;
24273;SDS011;12392;42.678;23.380;2022-07-23T06:29:50;20.42;;;8.05;;
24273;SDS011;12392;42.678;23.380;2022-07-23T06:32:16;17.48;;;7.78;;
24273;SDS011;12392;42.678;23.380;2022-07-23T06:34:42;23.33;;;7.63;;
24273;SDS011;12392;42.678;23.380;2022-07-23T06:37:07;15.95;;;7.65;;
24273;SDS011;12392;42.678;23.380;2022-07-23T06:39:33;16.48;;;7.07;;
24273;SDS011;12392;42.678;23.380;2022-07-23T06:41:58;19.30;;;8.40;;
24273;SDS011;12392;42.678;23.380;2022-07-23T06:44:26;16.35;;;7.85;;
24273;SDS011;12392;42.678;23.380;2022-07-23T06:46:51;13.77;;;7.30;;
24273;SDS011;12392;42.678;23.380;2022-07-23T06:49:17;14.15;;;7.75;;
24273;SDS011;12392;42.678;23.380;2022-07-23T06:51:43;15.10;;;6.63;;
24273;SDS011;12392;42.678;23.380;2022-07-23T06:54:09;12.52;;;7.05;;
24273;SDS011;12392;42.678;23.380;2022-07-23T06:56:34;16.15;;;6.55;;
24273;SDS011;12392;42.678;23.380;2022-07-23T06:59:00;17.90;;;6.65;;
24273;SDS011;12392;42.678;23.380;2022-07-23T07:01:26;16.58;;;6.53;;
24273;SDS011;12392;42.678;23.380;2022-07-23T07:03:51;15.30;;;6.95;;
24273;SDS011;12392;42.678;23.380;2022-07-23T07:06:17;16.30;;;7.40;;
24273;SDS011;12392;42.678;23.380;2022-07-23T07:08:43;15.75;;;6.95;;
24273;SDS011;12392;42.678;23.380;2022-07-23T07:11:09;18.98;;;7.75;;
24273;SDS011;12392;42.678;23.380;2022-07-23T07:13:35;15.70;;;7.63;;
24273;SDS011;12392;42.678;23.380;2022-07-23T07:16:01;16.38;;;8.10;;
24273;SDS011;12392;42.678;23.380;2022-07-23T07:18:27;14.60;;;6.93;;
24273;SDS011;12392;42.678;23.380;2022-07-23T07:20:53;15.18;;;8.05;;
24273;SDS011;12392;42.678;23.380;2022-07-23T07:23:19;25.52;;;7.22;;
24273;SDS011;12392;42.678;23.380;2022-07-23T07:25:45;20.45;;;8.43;;
24273;SDS011;12392;42.678;23.380;2022-07-23T07:28:11;19.73;;;8.25;;
24273;SDS011;12392;42.678;23.380;2022-07-23T07:30:37;25.13;;;9.98;;
24273;SDS011;12392;42.678;23.380;2022-07-23T07:33:03;19.65;;;10.18;;
24273;SDS011;12392;42.678;23.380;2022-07-23T07:35:29;20.40;;;9.38;;
24273;SDS011;12392;42.678;23.380;2022-07-23T07:37:57;20.02;;;9.60;;
24273;SDS011;12392;42.678;23.380;2022-07-23T07:40:23;16.65;;;8.98;;
24273;SDS011;12392;42.678;23.380;2022-07-23T07:42:52;28.27;;;9.98;;
24273;SDS011;12392;42.678;23.380;2022-07-23T07:45:21;40.25;;;11.13;;
24273;SDS011;12392;42.678;23.380;2022-07-23T07:47:48;25.58;;;9.45;;
24273;SDS011;12392;42.678;23.380;2022-07-23T07:50:13;19.00;;;10.38;;
24273;SDS011;12392;42.678;23.380;2022-07-23T07:52:39;27.33;;;9.55;;
24273;SDS011;12392;42.678;23.380;2022-07-23T07:55:05;20.05;;;10.13;;
24273;SDS011;12392;42.678;23.380;2022-07-23T07:57:32;19.02;;;9.30;;
24273;SDS011;12392;42.678;23.380;2022-07-23T07:59:58;24.50;;;9.50;;
24273;SDS011;12392;42.678;23.380;2022-07-23T08:02:24;17.77;;;8.60;;
24273;SDS011;12392;42.678;23.380;2022-07-23T08:04:50;17.92;;;7.90;;
24273;SDS011;12392;42.678;23.380;2022-07-23T08:07:17;21.95;;;9.50;;
24273;SDS011;12392;42.678;23.380;2022-07-23T08:09:43;18.95;;;7.35;;
24273;SDS011;12392;42.678;23.380;2022-07-23T08:12:09;20.27;;;8.10;;
24273;SDS011;12392;42.678;23.380;2022-07-23T08:14:34;14.82;;;8.95;;
24273;SDS011;12392;42.678;23.380;2022-07-23T08:17:00;18.30;;;8.93;;
24273;SDS011;12392;42.678;23.380;2022-07-23T08:19:26;16.33;;;8.48;;
24273;SDS011;12392;42.678;23.380;2022-07-23T08:21:51;20.50;;;8.35;;
24273;SDS011;12392;42.678;23.380;2022-07-23T08:24:17;15.90;;;8.30;;
24273;SDS011;12392;42.678;23.380;2022-07-23T08:26:43;22.42;;;8.50;;
24273;SDS011;12392;42.678;23.380;2022-07-23T08:29:08;18.70;;;7.65;;
24273;SDS011;12392;42.678;23.380;2022-07-23T08:31:34;16.70;;;7.88;;
24273;SDS011;12392;42.678;23.380;2022-07-23T08:34:00;24.15;;;8.60;;
24273;SDS011;12392;42.678;23.380;2022-07-23T08:36:27;17.33;;;8.10;;
24273;SDS011;12392;42.678;23.380;2022-07-23T08:38:57;16.20;;;8.25;;
24273;SDS011;12392;42.678;23.380;2022-07-23T08:41:28;15.32;;;7.80;;
24273;SDS011;12392;42.678;23.380;2022-07-23T08:43:54;12.00;;;7.55;;
24273;SDS011;12392;42.678;23.380;2022-07-23T08:46:19;17.30;;;8.27;;
24273;SDS011;12392;42.678;23.380;2022-07-23T08:48:47;15.82;;;8.32;;
24273;SDS011;12392;42.678;23.380;2022-07-23T08:51:13;18.48;;;7.85;;
24273;SDS011;12392;42.678;23.380;2022-07-23T08:53:39;18.23;;;7.95;;
24273;SDS011;12392;42.678;23.380;2022-07-23T08:56:06;18.00;;;7.00;;
24273;SDS011;12392;42.678;23.380;2022-07-23T08:58:33;10.77;;;6.82;;
24273;SDS011;12392;42.678;23.380;2022-07-23T09:00:59;15.45;;;7.55;;
24273;SDS011;12392;42.678;23.380;2022-07-23T09:03:26;15.63;;;7.30;;
24273;SDS011;12392;42.678;23.380;2022-07-23T09:05:52;14.13;;;7.13;;
24273;SDS011;12392;42.678;23.380;2022-07-23T09:08:19;15.20;;;7.20;;
24273;SDS011;12392;42.678;23.380;2022-07-23T09:13:23;16.27;;;6.63;;
24273;SDS011;12392;42.678;23.380;2022-07-23T09:15:50;12.90;;;7.13;;
24273;SDS011;12392;42.678;23.380;2022-07-23T09:18:16;17.08;;;6.68;;
24273;SDS011;12392;42.678;23.380;2022-07-23T09:20:43;12.55;;;6.80;;
24273;SDS011;12392;42.678;23.380;2022-07-23T09:23:09;15.35;;;7.25;;
24273;SDS011;12392;42.678;23.380;2022-07-23T09:25:35;17.90;;;7.15;;
24273;SDS011;12392;42.678;23.380;2022-07-23T09:28:01;13.27;;;7.13;;
24273;SDS011;12392;42.678;23.380;2022-07-23T09:30:30;11.80;;;6.57;;
24273;SDS011;12392;42.678;23.380;2022-07-23T09:33:12;17.67;;;7.35;;
24273;SDS011;12392;42.678;23.380;2022-07-23T09:38:10;12.68;;;7.28;;
24273;SDS011;12392;42.678;23.380;2022-07-23T09:40:36;13.02;;;6.68;;
24273;SDS011;12392;42.678;23.380;2022-07-23T09:43:02;20.92;;;6.82;;
24273;SDS011;12392;42.678;23.380;2022-07-23T09:45:28;21.33;;;7.00;;
24273;SDS011;12392;42.678;23.380;2022-07-23T09:48:09;18.02;;;7.13;;
24273;SDS011;12392;42.678;23.380;2022-07-23T09:50:39;16.77;;;6.93;;
24273;SDS011;12392;42.678;23.380;2022-07-23T09:53:06;18.23;;;7.38;;
24273;SDS011;12392;42.678;23.380;2022-07-23T09:55:32;13.82;;;6.72;;
24273;SDS011;12392;42.678;23.380;2022-07-23T09:58:03;12.15;;;6.35;;
24273;SDS011;12392;42.678;23.380;2022-07-23T10:00:38;11.23;;;6.53;;
24273;SDS011;12392;42.678;23.380;2022-07-23T10:03:05;14.13;;;6.65;;
24273;SDS011;12392;42.678;23.380;2022-07-23T10:05:31;15.00;;;6.47;;
24273;SDS011;12392;42.678;23.380;2022-07-23T10:08:00;12.35;;;6.43;;
24273;SDS011;12392;42.678;23.380;2022-07-23T10:10:27;16.45;;;5.88;;
24273;SDS011;12392;42.678;23.380;2022-07-23T10:12:54;10.75;;;5.75;;
24273;SDS011;12392;42.678;23.380;2022-07-23T10:15:23;12.20;;;6.93;;
24273;SDS011;12392;42.678;23.380;2022-07-23T10:17:51;13.20;;;6.53;;
24273;SDS011;12392;42.678;23.380;2022-07-23T10:20:16;15.10;;;6.75;;
24273;SDS011;12392;42.678;23.380;2022-07-23T10:23:19;15.52;;;6.25;;
24273;SDS011;12392;42.678;23.380;2022-07-23T10:26:08;8.40;;;6.35;;
24273;SDS011;12392;42.678;23.380;2022-07-23T10:28:46;12.27;;;6.80;;
24273;SDS011;12392;42.678;23.380;2022-07-23T10:34:30;13.02;;;6.20;;
24273;SDS011;12392;42.678;23.380;2022-07-23T10:37:39;8.95;;;6.68;;
24273;SDS011;12392;42.678;23.380;2022-07-23T10:40:11;15.35;;;6.07;;
24273;SDS011;12392;42.678;23.380;2022-07-23T10:42:37;14.85;;;6.55;;
24273;SDS011;12392;42.678;23.380;2022-07-23T10:48:20;14.65;;;5.95;;
24273;SDS011;12392;42.678;23.380;2022-07-23T10:53:57;11.27;;;6.03;;
24273;SDS011;12392;42.678;23.380;2022-07-23T10:59:19;17.05;;;5.60;;
24273;SDS011;12392;42.678;23.380;2022-07-23T11:01:45;15.57;;;6.05;;
24273;SDS011;12392;42.678;23.380;2022-07-23T11:04:11;14.18;;;5.78;;
24273;SDS011;12392;42.678;23.380;2022-07-23T11:17:32;13.77;;;5.90;;
24273;SDS011;12392;42.678;23.380;2022-07-23T11:22:46;15.50;;;6.82;;
24273;SDS011;12392;42.678;23.380;2022-07-23T11:27:54;20.77;;;6.05;;
24273;SDS011;12392;42.678;23.380;2022-07-23T11:35:33;15.80;;;6.45;;
24273;SDS011;12392;42.678;23.380;2022-07-23T11:38:13;16.55;;;6.43;;
24273;SDS011;12392;42.678;23.380;2022-07-23T11:40:40;17.35;;;5.57;;
24273;SDS011;12392;42.678;23.380;2022-07-23T11:43:07;19.10;;;5.60;;
24273;SDS011;12392;42.678;23.380;2022-07-23T11:45:40;12.32;;;5.32;;
24273;SDS011;12392;42.678;23.380;2022-07-23T11:48:08;14.67;;;5.47;;
24273;SDS011;12392;42.678;23.380;2022-07-23T11:50:35;18.50;;;5.20;;
24273;SDS011;12392;42.678;23.380;2022-07-23T11:53:02;15.50;;;5.35;;
24273;SDS011;12392;42.678;23.380;2022-07-23T11:55:28;13.88;;;5.47;;
24273;SDS011;12392;42.678;23.380;2022-07-23T11:57:54;14.07;;;6.05;;
24273;SDS011;12392;42.678;23.380;2022-07-23T12:00:25;22.25;;;5.50;;
24273;SDS011;12392;42.678;23.380;2022-07-23T12:02:53;17.23;;;6.30;;
24273;SDS011;12392;42.678;23.380;2022-07-23T12:05:22;18.75;;;5.80;;
24273;SDS011;12392;42.678;23.380;2022-07-23T12:07:50;19.98;;;5.72;;
24273;SDS011;12392;42.678;23.380;2022-07-23T12:12:50;14.13;;;5.78;;
24273;SDS011;12392;42.678;23.380;2022-07-23T12:15:24;11.35;;;5.32;;
24273;SDS011;12392;42.678;23.380;2022-07-23T12:17:55;15.07;;;6.13;;
24273;SDS011;12392;42.678;23.380;2022-07-23T12:20:23;16.65;;;5.97;;
24273;SDS011;12392;42.678;23.380;2022-07-23T12:22:51;15.43;;;5.43;;
24273;SDS011;12392;42.678;23.380;2022-07-23T12:25:19;17.20;;;6.20;;
24273;SDS011;12392;42.678;23.380;2022-07-23T12:27:57;14.27;;;5.65;;
24273;SDS011;12392;42.678;23.380;2022-07-23T12:30:50;22.08;;;4.88;;
24273;SDS011;12392;42.678;23.380;2022-07-23T12:35:49;13.20;;;5.57;;
24273;SDS011;12392;42.678;23.380;2022-07-23T12:38:16;16.95;;;5.93;;
24273;SDS011;12392;42.678;23.380;2022-07-23T12:40:45;16.95;;;5.13;;
24273;SDS011;12392;42.678;23.380;2022-07-23T12:43:25;17.33;;;5.90;;
24273;SDS011;12392;42.678;23.380;2022-07-23T12:46:02;18.88;;;6.43;;
24273;SDS011;12392;42.678;23.380;2022-07-23T12:48:29;15.68;;;5.22;;
24273;SDS011;12392;42.678;23.380;2022-07-23T12:54:12;14.52;;;5.75;;
24273;SDS011;12392;42.678;23.380;2022-07-23T12:56:38;14.73;;;5.90;;
24273;SDS011;12392;42.678;23.380;2022-07-23T12:59:08;21.30;;;5.30;;
24273;SDS011;12392;42.678;23.380;2022-07-23T13:01:45;17.98;;;4.68;;
24273;SDS011;12392;42.678;23.380;2022-07-23T13:04:23;15.88;;;5.47;;
24273;SDS011;12392;42.678;23.380;2022-07-23T13:06:53;22.60;;;5.38;;
24273;SDS011;12392;42.678;23.380;2022-07-23T13:09:25;18.98;;;5.90;;
24273;SDS011;12392;42.678;23.380;2022-07-23T13:11:52;21.27;;;5.75;;
24273;SDS011;12392;42.678;23.380;2022-07-23T13:14:19;18.33;;;6.28;;
24273;SDS011;12392;42.678;23.380;2022-07-23T13:16:46;13.60;;;5.07;;
24273;SDS011;12392;42.678;23.380;2022-07-23T13:19:13;16.58;;;5.18;;
24273;SDS011;12392;42.678;23.380;2022-07-23T13:21:39;16.73;;;5.45;;
24273;SDS011;12392;42.678;23.380;2022-07-23T13:24:06;14.88;;;4.88;;
24273;SDS011;12392;42.678;23.380;2022-07-23T13:26:32;34.63;;;6.10;;
24273;SDS011;12392;42.678;23.380;2022-07-23T13:28:58;19.63;;;5.68;;
24273;SDS011;12392;42.678;23.380;2022-07-23T13:31:23;19.45;;;5.90;;
24273;SDS011;12392;42.678;23.380;2022-07-23T13:33:49;22.17;;;5.65;;
24273;SDS011;12392;42.678;23.380;2022-07-23T13:36:15;18.95;;;6.10;;
24273;SDS011;12392;42.678;23.380;2022-07-23T13:38:40;22.92;;;5.63;;
24273;SDS011;12392;42.678;23.380;2022-07-23T13:41:06;17.33;;;6.65;;
24273;SDS011;12392;42.678;23.380;2022-07-23T13:43:32;15.90;;;6.40;;
24273;SDS011;12392;42.678;23.380;2022-07-23T13:45:58;18.45;;;6.00;;
24273;SDS011;12392;42.678;23.380;2022-07-23T13:48:24;18.58;;;5.80;;
24273;SDS011;12392;42.678;23.380;2022-07-23T13:50:50;19.98;;;5.50;;
24273;SDS011;12392;42.678;23.380;2022-07-23T13:53:16;16.33;;;6.05;;
24273;SDS011;12392;42.678;23.380;2022-07-23T13:55:44;25.63;;;6.90;;
24273;SDS011;12392;42.678;23.380;2022-07-23T13:58:11;23.48;;;5.60;;
24273;SDS011;12392;42.678;23.380;2022-07-23T14:00:39;13.15;;;5.07;;
24273;SDS011;12392;42.678;23.380;2022-07-23T14:03:06;20.40;;;5.82;;
24273;SDS011;12392;42.678;23.380;2022-07-23T14:05:32;20.38;;;6.13;;
24273;SDS011;12392;42.678;23.380;2022-07-23T14:07:58;11.18;;;4.63;;
24273;SDS011;12392;42.678;23.380;2022-07-23T14:10:23;17.08;;;5.20;;
24273;SDS011;12392;42.678;23.380;2022-07-23T14:12:50;16.25;;;5.32;;
24273;SDS011;12392;42.678;23.380;2022-07-23T14:15:18;12.77;;;5.13;;
24273;SDS011;12392;42.678;23.380;2022-07-23T14:17:44;15.27;;;4.82;;
24273;SDS011;12392;42.678;23.380;2022-07-23T14:20:11;17.50;;;5.57;;
24273;SDS011;12392;42.678;23.380;2022-07-23T14:22:38;12.95;;;4.90;;
24273;SDS011;12392;42.678;23.380;2022-07-23T14:25:05;14.73;;;5.20;;
24273;SDS011;12392;42.678;23.380;2022-07-23T14:27:31;15.65;;;5.10;;
24273;SDS011;12392;42.678;23.380;2022-07-23T14:29:57;24.50;;;6.50;;
24273;SDS011;12392;42.678;23.380;2022-07-23T14:32:23;18.70;;;5.45;;
24273;SDS011;12392;42.678;23.380;2022-07-23T14:34:49;19.55;;;5.63;;
24273;SDS011;12392;42.678;23.380;2022-07-23T14:37:15;16.92;;;5.55;;
24273;SDS011;12392;42.678;23.380;2022-07-23T14:39:42;21.65;;;7.72;;
24273;SDS011;12392;42.678;23.380;2022-07-23T14:42:10;17.17;;;5.93;;
24273;SDS011;12392;42.678;23.380;2022-07-23T14:44:36;23.75;;;6.95;;
24273;SDS011;12392;42.678;23.380;2022-07-23T14:47:02;20.77;;;6.90;;
24273;SDS011;12392;42.678;23.380;2022-07-23T14:49:29;15.15;;;5.22;;
24273;SDS011;12392;42.678;23.380;2022-07-23T14:51:56;28.15;;;11.05;;
24273;SDS011;12392;42.678;23.380;2022-07-23T14:54:22;24.17;;;7.10;;
24273;SDS011;12392;42.678;23.380;2022-07-23T14:56:48;20.08;;;7.60;;
24273;SDS011;12392;42.678;23.380;2022-07-23T14:59:14;23.90;;;10.48;;
24273;SDS011;12392;42.678;23.380;2022-07-23T15:01:40;25.75;;;7.03;;
24273;SDS011;12392;42.678;23.380;2022-07-23T15:04:05;21.40;;;5.25;;
24273;SDS011;12392;42.678;23.380;2022-07-23T15:06:32;20.98;;;7.05;;